createdAt,value
2019-02-19T00:00:11.739Z,19.30
2019-02-19T00:02:40.622Z,15.13
2019-02-19T00:05:09.499Z,18.83
2019-02-19T00:07:38.294Z,14.03
2019-02-19T00:10:08.667Z,17.67
2019-02-19T00:12:39.077Z,16.20
2019-02-19T00:15:08.653Z,14.07
2019-02-19T00:17:37.762Z,14.23
2019-02-19T00:20:06.908Z,16.13
2019-02-19T00:22:35.726Z,18.17
2019-02-19T00:25:05.678Z,13.37
2019-02-19T00:27:34.474Z,14.70
2019-02-19T00:30:03.662Z,14.97
2019-02-19T00:32:33.450Z,14.80
2019-02-19T00:35:02.219Z,15.03
2019-02-19T00:37:31.890Z,13.40
2019-02-19T00:40:00.724Z,16.63
2019-02-19T00:42:29.569Z,15.33
2019-02-19T00:44:58.888Z,12.73
2019-02-19T00:47:28.531Z,14.47
2019-02-19T00:49:57.337Z,15.67
2019-02-19T00:52:26.247Z,13.90
2019-02-19T00:54:55.309Z,12.87
2019-02-19T00:57:24.101Z,12.87
2019-02-19T00:59:52.885Z,14.70
2019-02-19T01:02:22.828Z,13.40
2019-02-19T01:04:53.502Z,12.50
2019-02-19T01:07:23.952Z,15.80
2019-02-19T01:09:52.719Z,14.90
2019-02-19T01:12:21.495Z,14.77
2019-02-19T01:14:50.288Z,14.67
2019-02-19T01:17:19.372Z,14.43
2019-02-19T01:19:48.502Z,12.70
2019-02-19T01:22:17.276Z,15.87
2019-02-19T01:24:46.079Z,13.83
2019-02-19T01:27:14.987Z,13.37
2019-02-19T01:29:44.600Z,16.30
2019-02-19T01:32:13.473Z,14.87
2019-02-19T01:34:42.352Z,14.67
2019-02-19T01:37:11.466Z,13.13
2019-02-19T01:39:40.335Z,15.00
2019-02-19T01:42:09.189Z,13.83
2019-02-19T01:44:38.088Z,12.80
2019-02-19T01:47:07.157Z,13.90
2019-02-19T01:49:36.140Z,13.30
2019-02-19T01:52:04.903Z,13.07
2019-02-19T01:54:35.340Z,13.37
2019-02-19T01:57:04.118Z,17.33
2019-02-19T01:59:32.916Z,13.10
2019-02-19T02:02:01.681Z,14.10
2019-02-19T02:04:30.494Z,17.47
2019-02-19T02:06:59.402Z,15.40
2019-02-19T02:09:29.335Z,16.33
2019-02-19T02:11:58.100Z,13.20
2019-02-19T02:14:26.892Z,14.43
2019-02-19T02:16:55.661Z,14.17
2019-02-19T02:19:24.989Z,14.17
2019-02-19T02:21:53.793Z,14.07
2019-02-19T02:24:22.914Z,13.90
2019-02-19T02:26:53.457Z,14.53
2019-02-19T02:29:22.456Z,11.33
2019-02-19T02:31:51.316Z,14.07
2019-02-19T02:34:20.154Z,11.47
2019-02-19T02:36:49.009Z,15.80
2019-02-19T02:39:17.864Z,13.93
2019-02-19T02:41:46.726Z,11.87
2019-02-19T02:44:15.576Z,12.23
2019-02-19T02:46:44.427Z,11.10
2019-02-19T02:49:13.257Z,12.07
2019-02-19T02:51:42.057Z,12.33
2019-02-19T02:54:10.939Z,12.87
2019-02-19T02:56:39.878Z,13.00
2019-02-19T02:59:08.640Z,11.40
2019-02-19T03:01:37.437Z,12.43
2019-02-19T03:04:06.264Z,10.77
2019-02-19T03:06:39.555Z,14.03
2019-02-19T03:09:08.352Z,10.00
2019-02-19T03:11:37.218Z,10.73
2019-02-19T03:14:05.999Z,12.83
2019-02-19T03:16:34.780Z,10.43
2019-02-19T03:19:03.564Z,12.53
2019-02-19T03:21:32.889Z,11.37
2019-02-19T03:24:01.644Z,12.70
2019-02-19T03:26:30.410Z,11.43
2019-02-19T03:28:59.211Z,12.63
2019-02-19T03:31:28.030Z,14.27
2019-02-19T03:33:56.895Z,15.97
2019-02-19T03:36:25.676Z,14.47
2019-02-19T03:38:54.555Z,15.83
2019-02-19T03:41:23.386Z,11.60
2019-02-19T03:43:52.162Z,12.47
2019-02-19T03:46:20.984Z,12.67
2019-02-19T03:48:49.812Z,15.10
2019-02-19T03:51:18.561Z,16.53
2019-02-19T03:53:47.373Z,14.77
2019-02-19T03:56:16.215Z,22.77
2019-02-19T03:58:45.019Z,26.67
2019-02-19T04:01:13.791Z,29.53
2019-02-19T04:03:42.564Z,33.50
2019-02-19T04:06:11.335Z,35.00
2019-02-19T04:08:40.146Z,33.33
2019-02-19T04:11:08.912Z,38.10
2019-02-19T04:13:37.718Z,32.13
2019-02-19T04:16:06.478Z,27.47
2019-02-19T04:18:35.300Z,26.43
2019-02-19T04:21:04.228Z,28.83
2019-02-19T04:23:33.022Z,28.43
2019-02-19T04:26:01.814Z,37.63
2019-02-19T04:28:30.607Z,30.80
2019-02-19T04:30:59.395Z,36.47
2019-02-19T04:33:28.171Z,33.67
2019-02-19T04:35:56.973Z,34.40
2019-02-19T04:38:25.855Z,36.63
2019-02-19T04:40:54.646Z,33.23
2019-02-19T04:43:23.433Z,31.10
2019-02-19T04:45:52.463Z,31.43
2019-02-19T04:48:21.248Z,37.13
2019-02-19T04:50:50.063Z,32.87
2019-02-19T04:53:18.807Z,34.50
2019-02-19T04:55:47.632Z,30.17
2019-02-19T04:58:16.424Z,34.47
2019-02-19T05:00:45.233Z,34.23
2019-02-19T05:03:13.995Z,34.17
2019-02-19T05:05:42.812Z,36.07
2019-02-19T05:08:11.577Z,31.20
2019-02-19T05:10:40.392Z,33.60
2019-02-19T05:13:09.265Z,33.13
2019-02-19T05:15:38.042Z,28.97
2019-02-19T05:18:06.823Z,37.53
2019-02-19T05:20:35.777Z,31.87
2019-02-19T05:23:04.614Z,31.70
2019-02-19T05:25:33.427Z,33.77
2019-02-19T05:28:02.227Z,38.53
2019-02-19T05:30:31.052Z,30.43
2019-02-19T05:32:59.820Z,34.80
2019-02-19T05:35:28.637Z,30.33
2019-02-19T05:37:57.519Z,30.60
2019-02-19T05:40:27.900Z,31.73
2019-02-19T05:42:56.698Z,25.40
2019-02-19T05:45:26.400Z,22.97
2019-02-19T05:47:55.262Z,26.27
2019-02-19T05:50:24.030Z,23.77
2019-02-19T05:52:52.828Z,21.37
2019-02-19T05:55:21.596Z,18.13
2019-02-19T05:57:50.416Z,21.43
2019-02-19T06:00:19.189Z,17.73
2019-02-19T06:02:47.999Z,22.53
2019-02-19T06:05:16.779Z,20.00
2019-02-19T06:07:45.567Z,21.40
2019-02-19T06:10:14.333Z,18.73
2019-02-19T06:12:43.118Z,17.87
2019-02-19T06:15:12.267Z,18.83
2019-02-19T06:17:41.060Z,17.30
2019-02-19T06:20:09.831Z,20.03
2019-02-19T06:22:40.276Z,21.70
2019-02-19T06:25:09.365Z,23.33
2019-02-19T06:27:38.224Z,25.03
2019-02-19T06:30:10.126Z,24.20
2019-02-19T06:32:38.920Z,24.37
2019-02-19T06:35:08.453Z,28.03
2019-02-19T06:37:37.249Z,23.53
2019-02-19T06:40:14.999Z,21.33
2019-02-19T06:42:43.806Z,23.77
2019-02-19T06:45:15.358Z,24.03
2019-02-19T06:47:44.162Z,19.43
2019-02-19T06:50:12.919Z,20.93
2019-02-19T06:52:41.698Z,24.33
2019-02-19T06:55:10.522Z,19.87
2019-02-19T06:57:39.281Z,21.70
2019-02-19T07:00:10.695Z,21.73
2019-02-19T07:02:41.153Z,23.33
2019-02-19T07:05:11.595Z,21.63
2019-02-19T07:07:40.368Z,23.13
2019-02-19T07:10:09.156Z,21.00
2019-02-19T07:12:37.911Z,22.83
2019-02-19T07:15:08.351Z,22.90
2019-02-19T07:17:37.182Z,21.43
2019-02-19T07:20:09.120Z,24.00
2019-02-19T07:22:37.970Z,24.43
2019-02-19T07:25:13.996Z,19.00
2019-02-19T07:27:42.763Z,25.20
2019-02-19T07:30:12.197Z,25.90
2019-02-19T07:32:40.973Z,20.07
2019-02-19T07:35:12.501Z,23.77
2019-02-19T07:37:42.304Z,23.50
2019-02-19T07:40:12.564Z,21.50
2019-02-19T07:42:41.366Z,21.17
2019-02-19T07:45:15.504Z,22.70
2019-02-19T07:47:45.356Z,25.07
2019-02-19T07:50:14.355Z,25.10
2019-02-19T07:52:44.815Z,27.73
2019-02-19T07:55:13.685Z,26.00
2019-02-19T07:57:42.937Z,24.23
2019-02-19T08:00:13.445Z,24.90
2019-02-19T08:02:43.654Z,24.07
2019-02-19T08:05:12.670Z,26.23
2019-02-19T08:07:42.873Z,21.60
2019-02-19T08:10:12.248Z,21.87
2019-02-19T08:12:42.728Z,25.10
2019-02-19T08:15:12.048Z,24.27
2019-02-19T08:17:42.268Z,24.00
2019-02-19T08:20:15.861Z,23.13
2019-02-19T08:22:41.600Z,24.83
2019-02-19T08:25:10.402Z,24.77
2019-02-19T08:27:39.317Z,23.50
2019-02-19T08:30:11.106Z,26.00
2019-02-19T08:32:39.845Z,24.10
2019-02-19T08:35:08.629Z,27.43
2019-02-19T08:37:37.400Z,25.90
2019-02-19T08:40:08.817Z,24.37
2019-02-19T08:42:37.646Z,26.93
2019-02-19T08:45:08.508Z,24.43
2019-02-19T08:47:42.723Z,29.00
2019-02-19T08:50:08.303Z,28.57
2019-02-19T08:52:37.238Z,31.20
2019-02-19T08:55:06.781Z,32.23
2019-02-19T08:57:35.576Z,28.63
2019-02-19T09:00:07.591Z,25.90
2019-02-19T09:02:36.474Z,28.73
2019-02-19T09:05:06.932Z,27.93
2019-02-19T09:07:35.724Z,30.20
2019-02-19T09:10:07.791Z,29.40
2019-02-19T09:12:36.582Z,30.03
2019-02-19T09:15:11.222Z,32.47
2019-02-19T09:17:40.433Z,32.23
2019-02-19T09:20:10.035Z,30.77
2019-02-19T09:22:38.835Z,30.37
2019-02-19T09:25:08.633Z,34.83
2019-02-19T09:27:38.535Z,33.77
2019-02-19T09:30:12.189Z,31.57
2019-02-19T09:32:40.990Z,33.83
2019-02-19T09:35:09.946Z,31.37
2019-02-19T09:37:38.811Z,29.53
2019-02-19T09:40:09.538Z,32.40
2019-02-19T09:42:38.353Z,33.60
2019-02-19T09:45:09.700Z,29.10
2019-02-19T09:47:38.498Z,29.53
2019-02-19T09:50:09.540Z,31.00
2019-02-19T09:52:38.315Z,30.60
2019-02-19T09:55:07.675Z,30.47
2019-02-19T09:57:36.524Z,29.97
2019-02-19T10:00:11.411Z,32.10
2019-02-19T10:02:40.167Z,27.00
2019-02-19T10:05:11.117Z,30.57
2019-02-19T10:07:39.892Z,30.40
2019-02-19T10:10:11.692Z,31.77
2019-02-19T10:12:40.476Z,33.23
2019-02-19T10:15:11.925Z,29.17
2019-02-19T10:17:40.702Z,30.03
2019-02-19T10:20:10.427Z,31.57
2019-02-19T10:22:39.189Z,36.13
2019-02-19T10:25:13.150Z,28.23
2019-02-19T10:27:41.913Z,27.17
2019-02-19T10:30:13.759Z,27.57
2019-02-19T10:32:42.546Z,26.53
2019-02-19T10:35:11.881Z,28.27
2019-02-19T10:37:40.664Z,26.50
2019-02-19T10:40:20.397Z,27.00
2019-02-19T10:42:49.275Z,23.57
2019-02-19T10:45:25.208Z,25.67
2019-02-19T10:47:54.082Z,28.37
2019-02-19T10:50:23.222Z,26.27
2019-02-19T10:52:52.810Z,35.37
2019-02-19T10:55:21.720Z,36.07
2019-02-19T10:57:51.138Z,23.73
2019-02-19T11:00:23.286Z,25.20
2019-02-19T11:02:52.222Z,23.97
2019-02-19T11:05:21.718Z,25.43
2019-02-19T11:07:50.656Z,22.07
2019-02-19T11:10:19.495Z,27.27
2019-02-19T11:12:49.876Z,24.47
2019-02-19T11:15:18.656Z,22.97
2019-02-19T11:17:47.519Z,23.47
2019-02-19T11:20:21.769Z,20.20
2019-02-19T11:22:52.342Z,18.83
2019-02-19T11:25:21.274Z,19.93
2019-02-19T11:27:51.581Z,25.40
2019-02-19T11:30:21.344Z,19.50
2019-02-19T11:32:51.362Z,21.40
2019-02-19T11:35:21.814Z,17.73
2019-02-19T11:37:50.812Z,22.50
2019-02-19T11:40:21.466Z,20.00
2019-02-19T11:42:50.302Z,18.63
2019-02-19T11:45:19.503Z,20.10
2019-02-19T11:47:49.001Z,21.93
2019-02-19T11:50:17.932Z,19.90
2019-02-19T11:52:46.903Z,18.27
2019-02-19T11:55:18.951Z,19.40
2019-02-19T11:57:47.810Z,16.50
2019-02-19T12:00:18.417Z,18.23
2019-02-19T12:02:47.271Z,20.87
2019-02-19T12:05:16.716Z,19.10
2019-02-19T12:07:45.668Z,20.17
2019-02-19T12:10:14.611Z,24.07
2019-02-19T12:12:44.494Z,19.37
2019-02-19T12:15:13.805Z,16.23
2019-02-19T12:17:42.600Z,18.47
2019-02-19T12:20:13.163Z,15.67
2019-02-19T12:22:41.975Z,16.97
2019-02-19T12:25:11.176Z,16.97
2019-02-19T12:27:39.962Z,20.70
2019-02-19T12:30:14.128Z,18.67
2019-02-19T12:32:42.920Z,18.30
2019-02-19T12:35:11.907Z,15.80
2019-02-19T12:37:40.683Z,15.10
2019-02-19T12:40:11.369Z,17.67
2019-02-19T12:42:40.152Z,18.30
2019-02-19T12:45:13.101Z,14.20
2019-02-19T12:47:43.234Z,14.87
2019-02-19T12:50:16.559Z,15.33
2019-02-19T12:52:45.401Z,17.70
2019-02-19T12:55:14.280Z,12.83
2019-02-19T12:57:43.170Z,14.73
2019-02-19T13:00:14.588Z,15.10
2019-02-19T13:02:44.167Z,17.87
2019-02-19T13:05:15.410Z,14.60
2019-02-19T13:07:44.286Z,12.83
2019-02-19T13:10:13.140Z,16.03
2019-02-19T13:12:42.321Z,14.73
2019-02-19T13:15:21.807Z,12.50
2019-02-19T13:17:50.586Z,12.17
2019-02-19T13:20:21.034Z,16.30
2019-02-19T13:22:51.409Z,14.50
2019-02-19T13:25:20.184Z,13.80
2019-02-19T13:27:49.019Z,14.50
2019-02-19T13:30:22.575Z,13.63
2019-02-19T13:32:51.596Z,11.03
2019-02-19T13:35:20.428Z,12.33
2019-02-19T13:37:50.912Z,12.90
2019-02-19T13:40:21.229Z,13.87
2019-02-19T13:42:50.024Z,12.93
2019-02-19T13:45:18.951Z,11.73
2019-02-19T13:47:49.390Z,14.83
2019-02-19T13:50:27.596Z,12.73
2019-02-19T13:53:13.209Z,11.23
2019-02-19T13:55:43.671Z,9.20
2019-02-19T13:58:12.475Z,10.50
2019-02-19T14:00:43.009Z,12.57
2019-02-19T14:03:11.855Z,10.87
2019-02-19T14:05:40.651Z,8.20
2019-02-19T14:08:14.689Z,13.67
2019-02-19T14:10:40.108Z,9.87
2019-02-19T14:13:10.961Z,12.57
2019-02-19T14:15:56.288Z,12.27
2019-02-19T14:18:26.810Z,9.17
2019-02-19T14:21:13.236Z,9.33
2019-02-19T14:24:00.243Z,8.70
2019-02-19T14:26:47.099Z,9.07
2019-02-19T14:29:34.071Z,11.47
2019-02-19T14:32:20.923Z,10.63
2019-02-19T14:35:09.888Z,10.80
2019-02-19T14:37:43.015Z,10.63
2019-02-19T14:40:28.447Z,10.37
2019-02-19T14:43:04.648Z,12.20
2019-02-19T14:45:50.384Z,8.77
2019-02-19T14:48:35.795Z,10.40
2019-02-19T14:51:18.429Z,8.50
2019-02-19T14:54:06.933Z,11.13
2019-02-19T14:56:52.363Z,15.20
2019-02-19T14:59:22.772Z,14.33
2019-02-19T15:02:09.237Z,11.47
2019-02-19T15:04:42.628Z,13.10
2019-02-19T15:07:24.572Z,11.87
2019-02-19T15:10:04.116Z,11.00
2019-02-19T15:12:46.296Z,10.03
2019-02-19T15:15:29.047Z,13.80
2019-02-19T15:18:02.141Z,12.53
2019-02-19T15:20:32.560Z,13.37
2019-02-19T15:23:02.980Z,12.03
2019-02-19T15:25:33.461Z,12.00
2019-02-19T15:28:15.615Z,10.60
2019-02-19T15:30:58.059Z,11.23
2019-02-19T15:33:28.444Z,12.43
2019-02-19T15:35:58.840Z,11.30
2019-02-19T15:38:34.991Z,10.43
2019-02-19T15:41:21.590Z,12.37
2019-02-19T15:43:51.993Z,11.70
2019-02-19T15:46:37.379Z,9.60
2019-02-19T15:49:16.685Z,12.93
2019-02-19T15:51:53.229Z,7.13
2019-02-19T15:54:32.669Z,11.87
2019-02-19T15:57:05.823Z,9.87
2019-02-19T15:59:36.238Z,11.97
2019-02-19T16:02:09.896Z,9.00
2019-02-19T16:04:58.676Z,11.37
2019-02-19T16:07:29.096Z,8.50
2019-02-19T16:10:02.438Z,11.43
2019-02-19T16:12:35.671Z,12.27
2019-02-19T16:15:11.470Z,12.90
2019-02-19T16:17:58.201Z,9.13
2019-02-19T16:20:28.584Z,9.87
2019-02-19T16:23:15.003Z,11.60
2019-02-19T16:25:48.374Z,10.93
2019-02-19T16:28:34.826Z,9.27
2019-02-19T16:31:05.255Z,11.17
2019-02-19T16:33:52.002Z,14.07
2019-02-19T16:36:22.403Z,13.70
2019-02-19T16:39:07.910Z,15.80
2019-02-19T16:41:41.226Z,13.37
2019-02-19T16:44:17.326Z,12.57
2019-02-19T16:46:47.735Z,10.17
2019-02-19T16:49:34.531Z,9.60
2019-02-19T16:52:13.938Z,12.87
2019-02-19T16:54:47.473Z,9.50
2019-02-19T16:57:20.755Z,12.00
2019-02-19T17:00:03.179Z,10.83
2019-02-19T17:02:42.511Z,12.37
2019-02-19T17:05:28.185Z,12.10
2019-02-19T17:07:58.592Z,13.30
2019-02-19T17:10:31.834Z,10.80
2019-02-19T17:13:07.818Z,12.70
2019-02-19T17:15:54.412Z,13.13
2019-02-19T17:18:31.083Z,9.40
2019-02-19T17:21:01.508Z,9.50
2019-02-19T17:23:43.916Z,10.57
2019-02-19T17:26:14.414Z,11.03
2019-02-19T17:29:01.013Z,12.97
2019-02-19T17:31:31.441Z,12.80
2019-02-19T17:34:05.021Z,12.73
2019-02-19T17:36:50.736Z,10.70
2019-02-19T17:39:30.041Z,11.40
2019-02-19T17:42:00.528Z,13.13
2019-02-19T17:44:49.067Z,12.40
2019-02-19T17:47:19.581Z,10.47
2019-02-19T17:49:58.781Z,11.53
2019-02-19T17:52:38.272Z,16.40
2019-02-19T17:55:08.655Z,10.70
2019-02-19T17:57:42.127Z,14.67
2019-02-19T18:00:13.421Z,14.60
2019-02-19T18:02:46.918Z,11.63
2019-02-19T18:05:29.650Z,13.90
2019-02-19T18:08:16.583Z,10.20
2019-02-19T18:10:59.052Z,13.57
2019-02-19T18:13:45.376Z,16.20
2019-02-19T18:16:27.883Z,11.30
2019-02-19T18:18:56.728Z,13.33
2019-02-19T18:21:25.476Z,12.13
2019-02-19T18:23:54.381Z,12.67
2019-02-19T18:26:23.140Z,13.13
2019-02-19T18:28:51.932Z,13.60
2019-02-19T18:31:20.704Z,12.77
2019-02-19T18:33:49.475Z,15.60
2019-02-19T18:36:18.252Z,14.03
2019-02-19T18:38:47.042Z,11.40
2019-02-19T18:41:15.862Z,14.77
2019-02-19T18:43:44.647Z,13.93
2019-02-19T18:46:13.398Z,11.60
2019-02-19T18:48:42.237Z,13.53
2019-02-19T18:51:11.029Z,14.70
2019-02-19T18:53:39.833Z,14.57
2019-02-19T18:56:08.669Z,13.40
2019-02-19T18:58:37.529Z,11.37
2019-02-19T19:01:06.296Z,11.20
2019-02-19T19:03:35.146Z,12.27
2019-02-19T19:06:03.971Z,11.07
2019-02-19T19:08:32.727Z,11.97
2019-02-19T19:11:01.691Z,10.03
2019-02-19T19:13:30.453Z,11.87
2019-02-19T19:15:59.275Z,12.00
2019-02-19T19:18:28.044Z,9.23
2019-02-19T19:20:56.824Z,10.37
2019-02-19T19:23:25.613Z,9.87
2019-02-19T19:25:54.424Z,10.43
2019-02-19T19:28:23.200Z,11.13
2019-02-19T19:30:52.044Z,11.43
2019-02-19T19:33:20.854Z,12.20
2019-02-19T19:35:49.632Z,10.63
2019-02-19T19:38:18.433Z,7.77
2019-02-19T19:40:47.300Z,10.57
2019-02-19T19:43:16.051Z,10.13
2019-02-19T19:45:44.866Z,12.93
2019-02-19T19:48:13.690Z,10.97
2019-02-19T19:50:42.574Z,10.97
2019-02-19T19:53:11.390Z,14.47
2019-02-19T19:55:40.205Z,13.57
2019-02-19T19:58:08.951Z,9.40
2019-02-19T20:00:37.762Z,13.33
2019-02-19T20:03:06.524Z,10.80
2019-02-19T20:05:35.290Z,15.67
2019-02-19T20:08:04.100Z,14.23
2019-02-19T20:10:32.941Z,10.23
2019-02-19T20:13:01.986Z,11.50
2019-02-19T20:15:30.754Z,9.07
2019-02-19T20:17:59.533Z,8.40
2019-02-19T20:20:28.313Z,9.60
2019-02-19T20:22:57.119Z,15.33
2019-02-19T20:25:25.890Z,16.00
2019-02-19T20:27:54.679Z,25.10
2019-02-19T20:30:23.442Z,21.37
2019-02-19T20:32:52.304Z,18.93
2019-02-19T20:35:21.080Z,15.83
2019-02-19T20:37:54.074Z,17.97
2019-02-19T20:40:20.406Z,19.37
2019-02-19T20:42:49.226Z,17.73
2019-02-19T20:45:17.998Z,16.83
2019-02-19T20:47:48.321Z,28.53
2019-02-19T20:50:17.187Z,28.03
2019-02-19T20:52:45.994Z,22.20
2019-02-19T20:55:14.761Z,33.97
2019-02-19T20:57:43.539Z,25.43
2019-02-19T21:00:15.616Z,32.70
2019-02-19T21:02:44.472Z,50.27
2019-02-19T21:05:13.271Z,68.73
2019-02-19T21:07:42.106Z,50.40
2019-02-19T21:10:13.624Z,37.53
2019-02-19T21:12:42.467Z,17.00
2019-02-19T21:15:11.275Z,14.67
2019-02-19T21:17:40.172Z,9.90
2019-02-19T21:20:10.710Z,12.03
2019-02-19T21:22:39.539Z,15.10
2019-02-19T21:25:09.436Z,16.77
2019-02-19T21:27:38.258Z,23.67
2019-02-19T21:30:12.272Z,51.30
2019-02-19T21:32:41.040Z,33.00
2019-02-19T21:35:10.123Z,40.20
2019-02-19T21:37:38.945Z,43.47
2019-02-19T21:40:10.543Z,46.80
2019-02-19T21:42:39.346Z,30.60
2019-02-19T21:45:10.098Z,24.13
2019-02-19T21:47:38.939Z,26.40
2019-02-19T21:50:15.587Z,26.83
2019-02-19T21:52:44.650Z,35.00
2019-02-19T21:55:13.513Z,19.93
2019-02-19T21:57:45.329Z,19.30
2019-02-19T22:00:18.684Z,14.93
2019-02-19T22:02:47.486Z,15.50
2019-02-19T22:05:16.323Z,18.37
2019-02-19T22:07:45.133Z,18.13
2019-02-19T22:10:14.538Z,24.23
2019-02-19T22:12:43.337Z,29.00
2019-02-19T22:15:13.418Z,22.53
2019-02-19T22:17:42.400Z,22.20
2019-02-19T22:20:24.439Z,23.50
2019-02-19T22:22:53.230Z,19.37
2019-02-19T22:25:24.701Z,21.73
2019-02-19T22:27:52.565Z,21.40
2019-02-19T22:30:21.343Z,18.07
2019-02-19T22:32:50.119Z,17.43
2019-02-19T22:35:18.928Z,12.60
2019-02-19T22:37:47.735Z,13.10
2019-02-19T22:40:16.508Z,16.23
2019-02-19T22:42:45.283Z,16.77
2019-02-19T22:45:14.049Z,16.80
2019-02-19T22:47:42.905Z,13.40
2019-02-19T22:50:11.765Z,10.53
2019-02-19T22:52:40.557Z,12.57
2019-02-19T22:55:26.470Z,11.03
2019-02-19T22:57:55.286Z,10.50
2019-02-19T23:00:34.400Z,11.60
2019-02-19T23:03:03.254Z,12.73
2019-02-19T23:05:31.983Z,9.90
2019-02-19T23:08:00.761Z,11.67
2019-02-19T23:10:29.595Z,12.93
2019-02-19T23:12:58.382Z,14.00
2019-02-19T23:15:27.131Z,12.07
2019-02-19T23:17:55.958Z,12.10
2019-02-19T23:20:24.712Z,13.17
2019-02-19T23:22:53.515Z,11.37
2019-02-19T23:25:22.274Z,8.57
2019-02-19T23:27:51.063Z,9.97
2019-02-19T23:30:19.859Z,12.40
2019-02-19T23:32:48.611Z,10.83
2019-02-19T23:35:19.031Z,10.97
2019-02-19T23:37:47.790Z,13.87
2019-02-19T23:40:16.591Z,14.93
2019-02-19T23:42:45.348Z,11.80
2019-02-19T23:45:14.135Z,13.90
2019-02-19T23:47:42.908Z,15.07
2019-02-19T23:50:11.740Z,11.23
2019-02-19T23:52:40.494Z,11.80
2019-02-19T23:55:09.269Z,12.30
2019-02-19T23:57:38.020Z,13.77
